createdAt,value
2023-03-15T00:03:20.028Z,429.00
2023-03-15T00:07:19.889Z,429.00
2023-03-15T00:11:20.037Z,422.00
2023-03-15T00:15:19.966Z,427.00
2023-03-15T00:19:19.910Z,427.00
2023-03-15T00:23:19.912Z,422.00
2023-03-15T00:27:19.845Z,422.00
2023-03-15T00:31:19.867Z,431.00
2023-03-15T00:35:19.763Z,430.00
2023-03-15T00:39:19.785Z,433.00
2023-03-15T00:43:19.696Z,434.00
2023-03-15T00:47:19.682Z,427.00
2023-03-15T00:51:19.709Z,425.00
2023-03-15T00:55:19.691Z,423.00
2023-03-15T00:59:19.645Z,423.00
2023-03-15T01:03:19.578Z,425.00
2023-03-15T01:07:19.562Z,426.00
2023-03-15T01:11:19.595Z,420.00
2023-03-15T01:15:19.515Z,423.00
2023-03-15T01:19:19.448Z,423.00
2023-03-15T01:23:19.418Z,422.00
2023-03-15T01:27:19.373Z,426.00
2023-03-15T01:31:19.395Z,423.00
2023-03-15T01:35:19.322Z,423.00
2023-03-15T01:39:19.260Z,423.00
2023-03-15T01:43:19.248Z,426.00
2023-03-15T01:47:19.297Z,426.00
2023-03-15T01:51:19.450Z,429.00
2023-03-15T01:55:19.551Z,426.00
2023-03-15T01:59:19.600Z,430.00
2023-03-15T02:03:19.736Z,424.00
2023-03-15T02:07:19.872Z,428.00
2023-03-15T02:11:20.047Z,426.00
2023-03-15T02:15:20.087Z,422.00
2023-03-15T02:19:20.158Z,419.00
2023-03-15T02:23:20.164Z,424.00
2023-03-15T02:27:20.235Z,421.00
2023-03-15T02:31:20.311Z,421.00
2023-03-15T02:35:20.317Z,419.00
2023-03-15T02:39:20.810Z,420.00
2023-03-15T02:43:20.470Z,415.00
2023-03-15T02:47:20.534Z,416.00
2023-03-15T02:51:20.579Z,415.00
2023-03-15T02:55:20.655Z,418.00
2023-03-15T02:59:20.639Z,421.00
2023-03-15T03:03:20.714Z,422.00
2023-03-15T03:07:20.794Z,420.00
2023-03-15T03:11:20.798Z,418.00
2023-03-15T03:15:20.744Z,417.00
2023-03-15T03:19:20.781Z,419.00
2023-03-15T03:23:20.855Z,416.00
2023-03-15T03:27:20.882Z,413.00
2023-03-15T03:31:20.984Z,415.00
2023-03-15T03:35:20.932Z,414.00
2023-03-15T03:39:20.950Z,412.00
2023-03-15T03:43:20.926Z,411.00
2023-03-15T03:47:20.962Z,409.00
2023-03-15T03:51:20.959Z,416.00
2023-03-15T03:55:20.948Z,407.00
2023-03-15T03:59:21.054Z,408.00
2023-03-15T04:03:21.070Z,413.00
2023-03-15T04:07:21.030Z,416.00
2023-03-15T04:11:21.061Z,416.00
2023-03-15T04:15:21.046Z,411.00
2023-03-15T04:19:21.117Z,407.00
2023-03-15T04:23:21.151Z,408.00
2023-03-15T04:27:21.095Z,409.00
2023-03-15T04:31:21.147Z,408.00
2023-03-15T04:35:21.087Z,414.00
2023-03-15T04:39:21.056Z,416.00
2023-03-15T04:43:21.053Z,415.00
2023-03-15T04:47:21.042Z,414.00
2023-03-15T04:51:21.039Z,413.00
2023-03-15T04:55:21.018Z,414.00
2023-03-15T04:59:20.993Z,414.00
2023-03-15T05:03:20.977Z,414.00
2023-03-15T05:07:21.003Z,411.00
2023-03-15T05:11:21.127Z,409.00
2023-03-15T05:15:21.173Z,409.00
2023-03-15T05:19:21.141Z,411.00
2023-03-15T05:23:21.372Z,408.00
2023-03-15T05:27:21.372Z,412.00
2023-03-15T05:31:21.464Z,410.00
2023-03-15T05:35:21.872Z,411.00
2023-03-15T05:39:21.533Z,415.00
2023-03-15T05:43:21.551Z,416.00
2023-03-15T05:47:21.529Z,409.00
2023-03-15T05:51:21.518Z,408.00
2023-03-15T05:55:21.595Z,406.00
2023-03-15T05:59:21.555Z,410.00
2023-03-15T06:03:21.522Z,411.00
2023-03-15T06:07:21.484Z,409.00
2023-03-15T06:11:21.488Z,411.00
2023-03-15T06:15:21.451Z,410.00
2023-03-15T06:19:21.442Z,414.00
2023-03-15T06:23:21.461Z,413.00
2023-03-15T06:27:21.442Z,410.00
2023-03-15T06:31:21.422Z,429.00
2023-03-15T06:35:21.867Z,589.00
2023-03-15T06:39:21.883Z,551.00
2023-03-15T06:43:21.451Z,597.00
2023-03-15T06:47:21.416Z,652.00
2023-03-15T06:51:21.334Z,761.00
2023-03-15T06:55:21.364Z,773.00
2023-03-15T06:59:21.388Z,797.00
2023-03-15T07:03:21.471Z,817.00
2023-03-15T07:07:21.450Z,843.00
2023-03-15T07:11:21.877Z,853.00
2023-03-15T07:15:21.404Z,867.00
2023-03-15T07:19:21.430Z,887.00
2023-03-15T07:23:21.421Z,901.00
2023-03-15T07:27:21.285Z,902.00
2023-03-15T07:31:21.275Z,919.00
2023-03-15T07:35:21.195Z,942.00
2023-03-15T07:39:21.222Z,872.00
2023-03-15T07:43:21.129Z,662.00
2023-03-15T07:47:21.304Z,691.00
2023-03-15T07:51:21.398Z,728.00
2023-03-15T07:55:21.463Z,770.00
2023-03-15T07:59:21.485Z,800.00
2023-03-15T08:03:21.847Z,761.00
2023-03-15T08:07:21.964Z,806.00
2023-03-15T08:11:22.015Z,819.00
2023-03-15T08:15:22.224Z,847.00
2023-03-15T08:19:22.411Z,861.00
2023-03-15T08:23:22.930Z,872.00
2023-03-15T08:27:22.777Z,888.00
2023-03-15T08:31:23.066Z,894.00
2023-03-15T08:35:23.500Z,642.00
2023-03-15T08:39:23.202Z,635.00
2023-03-15T08:43:23.325Z,664.00
2023-03-15T08:47:23.515Z,706.00
2023-03-15T08:51:23.432Z,728.00
2023-03-15T08:55:23.574Z,762.00
2023-03-15T08:59:31.934Z,771.00
2023-03-15T09:03:24.700Z,786.00
2023-03-15T09:07:23.620Z,798.00
2023-03-15T09:11:23.680Z,823.00
2023-03-15T09:15:23.866Z,844.00
2023-03-15T09:19:24.031Z,851.00
2023-03-15T09:23:24.013Z,875.00
2023-03-15T09:27:23.991Z,735.00
2023-03-15T09:31:23.996Z,504.00
2023-03-15T09:35:23.893Z,457.00
2023-03-15T09:39:23.874Z,427.00
2023-03-15T09:43:23.948Z,450.00
2023-03-15T09:47:23.825Z,518.00
2023-03-15T09:51:23.792Z,576.00
2023-03-15T09:55:23.718Z,614.00
2023-03-15T09:59:23.744Z,685.00
2023-03-15T10:03:23.705Z,705.00
2023-03-15T10:07:24.012Z,743.00
2023-03-15T10:11:23.574Z,773.00
2023-03-15T10:15:23.627Z,790.00
2023-03-15T10:19:23.468Z,821.00
2023-03-15T10:23:23.512Z,834.00
2023-03-15T10:27:23.426Z,867.00
2023-03-15T10:31:32.876Z,885.00
2023-03-15T10:35:24.519Z,919.00
2023-03-15T10:39:23.306Z,946.00
2023-03-15T10:43:23.309Z,957.00
2023-03-15T10:47:24.783Z,964.00
2023-03-15T10:51:23.686Z,976.00
2023-03-15T10:55:23.934Z,1008.00
2023-03-15T10:59:24.588Z,995.00
2023-03-15T11:03:24.287Z,1001.00
2023-03-15T11:07:24.409Z,1006.00
2023-03-15T11:11:24.539Z,1013.00
2023-03-15T11:15:24.666Z,1028.00
2023-03-15T11:19:24.794Z,1034.00
2023-03-15T11:23:24.921Z,1044.00
2023-03-15T11:27:25.003Z,1050.00
2023-03-15T11:31:25.199Z,997.00
2023-03-15T11:35:26.885Z,876.00
2023-03-15T11:39:25.421Z,918.00
2023-03-15T11:43:25.595Z,942.00
2023-03-15T11:47:26.032Z,925.00
2023-03-15T11:51:25.864Z,939.00
2023-03-15T11:55:26.088Z,974.00
2023-03-15T11:59:26.168Z,991.00
2023-03-15T12:03:26.277Z,999.00
2023-03-15T12:07:26.272Z,1020.00
2023-03-15T12:11:26.193Z,1021.00
2023-03-15T12:15:26.121Z,1039.00
2023-03-15T12:19:26.490Z,885.00
2023-03-15T12:23:26.318Z,661.00
2023-03-15T12:27:26.384Z,617.00
2023-03-15T12:31:26.468Z,633.00
2023-03-15T12:35:26.504Z,626.00
2023-03-15T12:39:26.476Z,620.00
2023-03-15T12:43:26.397Z,609.00
2023-03-15T12:47:26.375Z,600.00
2023-03-15T12:51:26.366Z,581.00
2023-03-15T12:55:26.261Z,570.00
2023-03-15T12:59:26.222Z,568.00
2023-03-15T13:03:26.541Z,701.00
2023-03-15T13:07:26.202Z,807.00
2023-03-15T13:11:26.138Z,839.00
2023-03-15T13:15:26.090Z,926.00
2023-03-15T13:19:26.053Z,957.00
2023-03-15T13:23:26.336Z,986.00
2023-03-15T13:27:26.062Z,1018.00
2023-03-15T13:31:26.071Z,1023.00
2023-03-15T13:35:25.951Z,1047.00
2023-03-15T13:39:25.913Z,1073.00
2023-03-15T13:43:26.142Z,1105.00
2023-03-15T13:47:25.798Z,1095.00
2023-03-15T13:51:25.963Z,1085.00
2023-03-15T13:55:25.975Z,1069.00
2023-03-15T13:59:25.940Z,941.00
2023-03-15T14:03:25.872Z,902.00
2023-03-15T14:07:25.812Z,968.00
2023-03-15T14:11:25.778Z,987.00
2023-03-15T14:15:25.783Z,999.00
2023-03-15T14:19:25.691Z,1016.00
2023-03-15T14:23:25.741Z,1014.00
2023-03-15T14:27:25.621Z,1012.00
2023-03-15T14:31:25.633Z,1016.00
2023-03-15T14:35:25.602Z,997.00
2023-03-15T14:39:25.509Z,967.00
2023-03-15T14:43:25.532Z,1011.00
2023-03-15T14:47:25.627Z,1016.00
2023-03-15T14:51:25.588Z,989.00
2023-03-15T14:55:25.568Z,921.00
2023-03-15T14:59:25.534Z,869.00
2023-03-15T15:03:25.460Z,825.00
2023-03-15T15:07:25.446Z,801.00
2023-03-15T15:11:25.359Z,777.00
2023-03-15T15:15:25.395Z,758.00
2023-03-15T15:19:25.330Z,728.00
2023-03-15T15:23:25.284Z,712.00
2023-03-15T15:27:25.585Z,697.00
2023-03-15T15:31:25.296Z,679.00
2023-03-15T15:35:25.158Z,645.00
2023-03-15T15:39:25.150Z,620.00
2023-03-15T15:43:25.109Z,600.00
2023-03-15T15:47:25.069Z,587.00
2023-03-15T15:51:25.040Z,573.00
2023-03-15T15:55:25.068Z,565.00
2023-03-15T15:59:24.951Z,544.00
2023-03-15T16:03:24.942Z,529.00
2023-03-15T16:07:24.881Z,526.00
2023-03-15T16:11:24.860Z,525.00
2023-03-15T16:15:24.814Z,523.00
2023-03-15T16:19:24.792Z,524.00
2023-03-15T16:23:24.836Z,521.00
2023-03-15T16:27:25.004Z,517.00
2023-03-15T16:31:25.152Z,519.00
2023-03-15T16:35:25.266Z,509.00
2023-03-15T16:39:25.213Z,506.00
2023-03-15T16:43:25.174Z,509.00
2023-03-15T16:47:25.136Z,506.00
2023-03-15T16:51:25.115Z,504.00
2023-03-15T16:55:25.055Z,503.00
2023-03-15T16:59:25.055Z,498.00
2023-03-15T17:03:24.995Z,497.00
2023-03-15T17:07:25.039Z,492.00
2023-03-15T17:11:24.888Z,489.00
2023-03-15T17:15:24.939Z,490.00
2023-03-15T17:19:24.858Z,489.00
2023-03-15T17:23:24.794Z,486.00
2023-03-15T17:27:24.977Z,486.00
2023-03-15T17:31:25.845Z,486.00
2023-03-15T17:35:25.166Z,482.00
2023-03-15T17:39:25.347Z,479.00
2023-03-15T17:43:25.310Z,477.00
2023-03-15T17:47:25.278Z,479.00
2023-03-15T17:51:25.268Z,475.00
2023-03-15T17:55:25.214Z,475.00
2023-03-15T17:59:25.174Z,474.00
2023-03-15T18:03:25.120Z,473.00
2023-03-15T18:07:25.106Z,469.00
2023-03-15T18:11:25.122Z,471.00
2023-03-15T18:15:25.062Z,469.00
2023-03-15T18:19:25.027Z,466.00
2023-03-15T18:23:24.978Z,471.00
2023-03-15T18:27:24.923Z,464.00
2023-03-15T18:31:24.891Z,466.00
2023-03-15T18:35:24.928Z,467.00
2023-03-15T18:39:25.105Z,463.00
2023-03-15T18:43:25.067Z,460.00
2023-03-15T18:47:25.056Z,460.00
2023-03-15T18:51:24.988Z,461.00
2023-03-15T18:55:24.984Z,466.00
2023-03-15T18:59:25.946Z,469.00
2023-03-15T19:03:24.895Z,476.00
2023-03-15T19:07:24.877Z,480.00
2023-03-15T19:11:24.811Z,480.00
2023-03-15T19:15:24.770Z,477.00
2023-03-15T19:19:24.753Z,473.00
2023-03-15T19:23:24.728Z,473.00
2023-03-15T19:27:24.656Z,472.00
2023-03-15T19:31:24.743Z,466.00
2023-03-15T19:35:24.712Z,468.00
2023-03-15T19:39:24.787Z,465.00
2023-03-15T19:43:24.816Z,467.00
2023-03-15T19:47:25.205Z,458.00
2023-03-15T19:51:25.410Z,458.00
2023-03-15T19:55:25.108Z,458.00
2023-03-15T19:59:25.123Z,458.00
2023-03-15T20:03:25.178Z,462.00
2023-03-15T20:07:25.187Z,468.00
2023-03-15T20:11:25.318Z,469.00
2023-03-15T20:15:26.482Z,466.00
2023-03-15T20:19:25.268Z,465.00
2023-03-15T20:23:25.300Z,464.00
2023-03-15T20:27:25.415Z,465.00
2023-03-15T20:31:25.482Z,467.00
2023-03-15T20:35:25.476Z,467.00
2023-03-15T20:39:25.573Z,467.00
2023-03-15T20:43:25.570Z,466.00
2023-03-15T20:47:25.513Z,460.00
2023-03-15T20:51:25.497Z,459.00
2023-03-15T20:55:25.557Z,460.00
2023-03-15T20:59:25.585Z,465.00
2023-03-15T21:03:25.593Z,466.00
2023-03-15T21:07:25.597Z,462.00
2023-03-15T21:11:25.559Z,461.00
2023-03-15T21:15:25.547Z,464.00
2023-03-15T21:19:25.572Z,455.00
2023-03-15T21:23:25.541Z,455.00
2023-03-15T21:27:25.526Z,460.00
2023-03-15T21:31:25.607Z,460.00
2023-03-15T21:35:25.598Z,465.00
2023-03-15T21:39:25.502Z,465.00
2023-03-15T21:43:25.460Z,461.00
2023-03-15T21:47:25.443Z,459.00
2023-03-15T21:51:25.421Z,459.00
2023-03-15T21:55:25.401Z,457.00
2023-03-15T21:59:25.370Z,458.00
2023-03-15T22:03:25.399Z,459.00
2023-03-15T22:07:25.332Z,462.00
2023-03-15T22:11:25.305Z,465.00
2023-03-15T22:15:25.333Z,467.00
2023-03-15T22:19:25.308Z,466.00
2023-03-15T22:23:25.326Z,467.00
2023-03-15T22:27:25.308Z,472.00
2023-03-15T22:31:25.306Z,472.00
2023-03-15T22:35:25.367Z,472.00
2023-03-15T22:39:25.394Z,471.00
2023-03-15T22:43:25.389Z,464.00
2023-03-15T22:47:25.389Z,470.00
2023-03-15T22:51:25.452Z,465.00
2023-03-15T22:55:25.507Z,464.00
2023-03-15T22:59:25.462Z,464.00
2023-03-15T23:03:25.453Z,467.00
2023-03-15T23:07:25.424Z,464.00
2023-03-15T23:11:25.458Z,458.00
2023-03-15T23:15:25.430Z,459.00
2023-03-15T23:19:25.476Z,457.00
2023-03-15T23:23:25.442Z,459.00
2023-03-15T23:27:25.470Z,461.00
2023-03-15T23:31:25.861Z,462.00
2023-03-15T23:35:25.443Z,463.00
2023-03-15T23:39:25.447Z,458.00
2023-03-15T23:43:25.419Z,457.00
2023-03-15T23:47:25.458Z,462.00
2023-03-15T23:51:25.432Z,463.00
2023-03-15T23:55:25.414Z,462.00
2023-03-15T23:59:25.400Z,463.00
